Time;durP1;ratioP1;P1;durP2;ratioP2;P2;SDS_P1;SDS_P2;PMS_P1;PMS_P2;Temp;Humidity;BMP_temperature;BMP_pressure;BME280_temperature;BME280_humidity;BME280_pressure;Samples;Min_cycle;Max_cycle;Signal;HPM_P1;HPM_P2
2021/06/18 00:00:01;;;;;;;37.22;22.58;;;26.40;63.30;;;;;;5093729;28;20032;-62
2021/06/18 00:02:27;;;;;;;32.38;22.27;;;26.30;63.20;;;;;;5092974;28;20475;-62
2021/06/18 00:04:53;;;;;;;35.30;20.77;;;26.40;63.30;;;;;;5083371;28;20028;-62
2021/06/18 00:07:19;;;;;;;33.75;22.00;;;26.30;63.30;;;;;;5087954;28;20035;-62
2021/06/18 00:09:45;;;;;;;33.40;22.70;;;26.30;63.40;;;;;;5092534;28;20028;-62
2021/06/18 00:12:11;;;;;;;34.78;21.92;;;26.30;63.50;;;;;;5093166;28;20486;-62
2021/06/18 00:14:36;;;;;;;33.70;22.05;;;26.20;63.60;;;;;;5092648;28;20403;-63
2021/06/18 00:17:02;;;;;;;34.97;21.08;;;26.20;63.70;;;;;;5090792;28;20031;-62
2021/06/18 00:19:28;;;;;;;32.83;20.70;;;26.20;63.90;;;;;;5089885;28;20027;-62
2021/06/18 00:21:54;;;;;;;35.42;22.50;;;26.20;64.00;;;;;;5094045;28;20028;-62
2021/06/18 00:24:19;;;;;;;34.70;21.83;;;26.10;64.00;;;;;;5087577;28;20154;-62
2021/06/18 00:26:45;;;;;;;31.30;20.92;;;26.10;64.10;;;;;;5093573;28;20031;-62
2021/06/18 00:29:11;;;;;;;28.50;20.42;;;26.10;64.10;;;;;;5082548;28;20043;-62
2021/06/18 00:31:37;;;;;;;30.45;19.23;;;26.10;64.10;;;;;;5088965;28;20031;-62
2021/06/18 00:34:03;;;;;;;26.85;19.02;;;26.00;64.00;;;;;;5092999;28;20069;-62
2021/06/18 00:36:28;;;;;;;30.70;19.80;;;26.00;64.10;;;;;;5089617;28;20024;-62
2021/06/18 00:38:54;;;;;;;30.88;18.02;;;26.00;64.20;;;;;;5089884;28;20111;-62
2021/06/18 00:41:20;;;;;;;33.10;19.88;;;25.90;64.20;;;;;;5092756;28;20093;-62
2021/06/18 00:43:46;;;;;;;32.63;19.70;;;26.00;64.30;;;;;;5091602;28;20081;-63
2021/06/18 00:46:13;;;;;;;28.05;19.67;;;25.90;64.30;;;;;;5092484;28;20131;-62
2021/06/18 00:48:38;;;;;;;31.30;20.38;;;25.90;64.40;;;;;;5071162;28;20111;-62
2021/06/18 00:51:04;;;;;;;29.83;20.85;;;25.90;64.50;;;;;;5092192;28;20447;-62
2021/06/18 00:53:30;;;;;;;26.23;20.02;;;25.90;64.60;;;;;;5080755;28;20036;-62
2021/06/18 00:55:56;;;;;;;55.55;21.75;;;25.80;64.60;;;;;;5086233;28;20071;-62
2021/06/18 00:58:22;;;;;;;33.20;19.70;;;25.80;64.70;;;;;;5074949;28;20032;-62
2021/06/18 01:00:48;;;;;;;30.70;19.05;;;25.80;64.70;;;;;;5070672;28;20028;-62
2021/06/18 01:03:14;;;;;;;28.95;18.30;;;25.70;64.70;;;;;;5090798;28;20032;-62
2021/06/18 01:05:43;;;;;;;32.70;18.98;;;25.70;64.70;;;;;;5091073;28;20027;-62
2021/06/18 01:08:28;;;;;;;33.80;19.67;;;25.70;64.90;;;;;;5090813;28;20036;-62
2021/06/18 01:10:56;;;;;;;29.13;20.08;;;25.60;65.10;;;;;;5093074;28;20087;-62
2021/06/18 01:13:49;;;;;;;30.75;19.50;;;25.60;65.20;;;;;;5090199;28;20070;-62
2021/06/18 01:16:34;;;;;;;33.90;19.63;;;25.60;65.20;;;;;;5088691;28;20020;-62
2021/06/18 01:19:23;;;;;;;32.72;19.42;;;25.50;65.30;;;;;;5085932;28;20337;-62
2021/06/18 01:21:56;;;;;;;28.27;20.25;;;25.50;65.30;;;;;;5081414;28;20038;-62
2021/06/18 01:24:54;;;;;;;27.55;19.02;;;25.40;65.40;;;;;;5091753;28;20024;-62
2021/06/18 01:27:27;;;;;;;32.10;18.52;;;25.40;65.40;;;;;;5078934;28;20472;-62
2021/06/18 01:30:05;;;;;;;26.00;17.70;;;25.40;65.30;;;;;;5092661;28;20016;-62
2021/06/18 01:33:08;;;;;;;27.50;17.35;;;25.40;65.20;;;;;;5091799;28;20039;-62
2021/06/18 01:35:50;;;;;;;26.63;18.23;;;25.30;65.10;;;;;;5077243;28;20452;-62
2021/06/18 01:38:18;;;;;;;26.17;18.90;;;25.30;65.00;;;;;;5091762;28;20120;-62
2021/06/18 01:40:47;;;;;;;27.27;18.23;;;25.20;65.10;;;;;;5091193;28;20098;-62
2021/06/18 01:43:14;;;;;;;34.75;20.67;;;25.20;65.20;;;;;;5091864;28;20039;-62
2021/06/18 01:45:42;;;;;;;28.10;19.33;;;25.10;65.50;;;;;;5092293;28;20052;-62
2021/06/18 01:48:09;;;;;;;27.00;18.98;;;25.10;65.70;;;;;;5096261;28;20103;-62
2021/06/18 01:50:38;;;;;;;27.88;17.70;;;25.10;65.60;;;;;;5099092;28;20032;-62
2021/06/18 01:53:08;;;;;;;28.13;19.88;;;25.00;65.30;;;;;;5085068;28;20127;-62
2021/06/18 01:55:35;;;;;;;28.60;17.95;;;25.00;65.40;;;;;;5095786;28;20028;-62
2021/06/18 01:58:04;;;;;;;37.33;19.77;;;25.00;65.70;;;;;;5098248;28;20028;-62
2021/06/18 02:00:34;;;;;;;32.58;19.83;;;24.90;66.00;;;;;;5094561;28;20028;-62
2021/06/18 02:03:03;;;;;;;29.50;18.85;;;24.90;66.10;;;;;;5096748;28;20433;-62
2021/06/18 02:05:31;;;;;;;20.50;15.95;;;24.90;66.10;;;;;;5097961;28;20613;-62
2021/06/18 02:07:59;;;;;;;20.45;14.65;;;24.80;65.70;;;;;;5079199;28;20036;-62
2021/06/18 02:10:25;;;;;;;22.88;14.82;;;24.70;65.20;;;;;;5094517;28;20032;-61
2021/06/18 02:12:54;;;;;;;23.77;16.60;;;24.70;65.30;;;;;;5098093;28;20032;-64
2021/06/18 02:15:21;;;;;;;29.73;17.50;;;24.70;65.40;;;;;;5097670;28;20040;-65
2021/06/18 02:17:49;;;;;;;28.20;17.92;;;24.60;65.70;;;;;;5096982;28;20118;-65
2021/06/18 02:20:16;;;;;;;30.95;17.70;;;24.60;66.00;;;;;;5097506;28;20017;-64
2021/06/18 02:22:45;;;;;;;25.20;18.23;;;24.50;66.30;;;;;;5097260;28;20027;-62
2021/06/18 02:25:13;;;;;;;22.60;17.75;;;24.50;66.50;;;;;;5098305;28;20027;-62
2021/06/18 02:27:40;;;;;;;27.50;16.70;;;24.50;66.80;;;;;;5096618;28;20093;-62
2021/06/18 02:30:07;;;;;;;23.85;17.15;;;24.50;67.00;;;;;;5094579;28;20028;-62
2021/06/18 02:32:38;;;;;;;28.95;18.48;;;24.40;67.40;;;;;;5097825;28;20028;-62
2021/06/18 02:35:04;;;;;;;26.48;17.25;;;24.40;67.70;;;;;;5095430;28;20020;-62
2021/06/18 02:37:30;;;;;;;29.67;18.65;;;24.40;68.00;;;;;;5096560;28;20012;-62
2021/06/18 02:39:57;;;;;;;30.95;18.17;;;24.30;68.10;;;;;;5097870;28;20078;-62
2021/06/18 02:42:24;;;;;;;27.83;17.83;;;24.30;68.20;;;;;;5097965;28;20042;-62
2021/06/18 02:44:50;;;;;;;28.20;18.17;;;24.30;68.40;;;;;;5087602;28;20056;-62
2021/06/18 02:47:36;;;;;;;25.88;18.58;;;24.30;69.10;;;;;;5097657;28;20107;-62
2021/06/18 02:50:37;;;;;;;27.70;17.40;;;24.30;68.60;;;;;;5097248;28;20036;-62
2021/06/18 02:53:19;;;;;;;22.90;16.45;;;24.30;68.80;;;;;;5039287;28;20040;-62
2021/06/18 02:55:55;;;;;;;24.55;15.93;;;24.20;68.60;;;;;;5097522;28;20028;-62
2021/06/18 02:58:24;;;;;;;26.58;17.50;;;24.20;68.70;;;;;;5093423;28;20089;-62
2021/06/18 03:00:52;;;;;;;26.65;17.05;;;24.20;68.80;;;;;;5094613;28;20105;-62
2021/06/18 03:03:22;;;;;;;25.25;17.20;;;24.20;69.20;;;;;;5093814;28;20063;-62
2021/06/18 03:05:50;;;;;;;24.00;16.98;;;24.20;69.50;;;;;;5091396;28;20107;-62
2021/06/18 03:08:17;;;;;;;27.73;16.83;;;24.20;69.60;;;;;;5093547;28;20097;-62
2021/06/18 03:10:48;;;;;;;28.83;18.17;;;24.20;69.80;;;;;;5091436;28;20032;-62
2021/06/18 03:13:18;;;;;;;30.65;18.58;;;24.10;70.00;;;;;;5084592;28;20501;-62
2021/06/18 03:15:46;;;;;;;26.95;18.83;;;24.10;70.10;;;;;;5094221;28;20052;-62
2021/06/18 03:18:16;;;;;;;27.67;19.05;;;24.20;70.10;;;;;;5094805;28;20028;-60
2021/06/18 03:20:43;;;;;;;27.90;19.48;;;24.10;70.20;;;;;;5094008;28;20027;-60
2021/06/18 03:23:13;;;;;;;28.42;18.67;;;24.10;70.40;;;;;;5095152;28;20035;-60
2021/06/18 03:25:40;;;;;;;25.90;19.52;;;24.10;70.40;;;;;;5088749;28;20040;-61
2021/06/18 03:28:07;;;;;;;30.92;18.52;;;24.10;70.50;;;;;;5094579;28;20075;-60
2021/06/18 03:30:34;;;;;;;26.80;18.63;;;24.10;70.70;;;;;;5081546;28;20122;-61
2021/06/18 03:33:03;;;;;;;27.25;18.05;;;24.10;70.90;;;;;;5092487;28;20090;-61
2021/06/18 03:35:34;;;;;;;35.45;17.80;;;24.10;71.20;;;;;;5094443;28;20063;-61
2021/06/18 03:38:01;;;;;;;22.52;16.70;;;24.10;71.30;;;;;;5090002;28;20059;-60
2021/06/18 03:40:27;;;;;;;29.95;17.77;;;24.10;71.40;;;;;;5083989;28;20598;-60
2021/06/18 03:42:54;;;;;;;24.38;17.90;;;24.00;71.60;;;;;;5090375;28;20102;-61
2021/06/18 03:45:21;;;;;;;25.30;17.17;;;24.00;71.90;;;;;;5094049;28;20070;-60
2021/06/18 03:47:48;;;;;;;26.30;18.40;;;23.90;72.10;;;;;;5093949;28;20044;-61
2021/06/18 03:50:19;;;;;;;23.88;17.15;;;23.90;72.30;;;;;;5088354;28;20029;-60
2021/06/18 03:52:45;;;;;;;31.95;20.35;;;23.80;72.60;;;;;;5076257;28;20040;-61
2021/06/18 03:55:11;;;;;;;29.13;21.02;;;23.80;72.80;;;;;;5089186;28;20024;-61
2021/06/18 03:57:40;;;;;;;32.50;22.67;;;23.80;73.10;;;;;;5083918;28;20024;-60
2021/06/18 04:00:07;;;;;;;31.05;21.80;;;23.80;73.50;;;;;;5081357;28;20024;-60
2021/06/18 04:02:38;;;;;;;32.90;23.58;;;23.70;73.70;;;;;;5093453;28;20028;-60
2021/06/18 04:05:05;;;;;;;31.70;22.45;;;23.80;74.00;;;;;;5093035;28;20071;-60
2021/06/18 04:07:32;;;;;;;31.92;21.50;;;23.70;74.20;;;;;;5087977;28;20036;-60
2021/06/18 04:09:58;;;;;;;34.78;21.05;;;23.70;74.40;;;;;;5087848;28;20040;-60
2021/06/18 04:12:24;;;;;;;28.27;20.67;;;23.70;74.60;;;;;;5093417;28;20028;-60
2021/06/18 04:14:52;;;;;;;24.45;19.35;;;23.70;74.80;;;;;;5092792;28;20036;-60
2021/06/18 04:17:18;;;;;;;26.88;19.38;;;23.70;74.90;;;;;;5091853;28;20035;-60
2021/06/18 04:19:44;;;;;;;29.88;19.20;;;23.70;75.10;;;;;;5092447;28;20020;-61
2021/06/18 04:22:16;;;;;;;28.92;19.42;;;23.60;75.20;;;;;;5090866;28;20023;-61
2021/06/18 04:24:41;;;;;;;30.48;18.98;;;23.60;75.40;;;;;;5092800;28;20028;-60
2021/06/18 04:27:07;;;;;;;28.10;18.48;;;23.60;75.60;;;;;;5080807;28;20107;-61
2021/06/18 04:29:33;;;;;;;29.80;17.83;;;23.60;75.60;;;;;;5091120;28;20081;-61
2021/06/18 04:31:58;;;;;;;26.77;17.75;;;23.60;75.80;;;;;;5094000;28;20043;-61
2021/06/18 04:34:24;;;;;;;29.75;17.92;;;23.60;75.90;;;;;;5092969;28;20126;-61
2021/06/18 04:36:50;;;;;;;25.65;17.95;;;23.60;75.90;;;;;;5089429;28;20027;-60
2021/06/18 04:39:15;;;;;;;25.63;17.48;;;23.60;75.90;;;;;;5090221;28;20036;-60
2021/06/18 04:41:43;;;;;;;30.00;18.10;;;23.60;75.90;;;;;;5090069;28;20039;-61
2021/06/18 04:44:08;;;;;;;25.48;16.48;;;23.60;76.00;;;;;;5091270;28;20471;-61
2021/06/18 04:46:34;;;;;;;25.23;16.98;;;23.60;75.80;;;;;;5092002;28;20099;-61
2021/06/18 04:49:00;;;;;;;24.55;16.80;;;23.60;75.90;;;;;;5093583;28;20107;-60
2021/06/18 04:51:26;;;;;;;26.52;16.08;;;23.60;75.90;;;;;;5091107;28;20103;-61
2021/06/18 04:53:55;;;;;;;21.67;16.60;;;23.70;75.80;;;;;;5092978;28;20044;-60
2021/06/18 04:56:21;;;;;;;25.20;17.55;;;23.70;75.80;;;;;;5092388;28;20043;-60
2021/06/18 04:58:47;;;;;;;28.05;18.30;;;23.70;75.90;;;;;;5091876;28;20035;-61
2021/06/18 05:01:13;;;;;;;25.88;18.80;;;23.70;76.00;;;;;;5092580;28;20489;-61
2021/06/18 05:03:39;;;;;;;28.23;20.63;;;23.70;76.00;;;;;;5091602;28;20028;-61
2021/06/18 05:06:04;;;;;;;27.45;19.17;;;23.70;76.10;;;;;;5087947;28;20364;-61
2021/06/18 05:08:30;;;;;;;23.70;14.30;;;23.70;76.10;;;;;;5091705;28;20059;-63
2021/06/18 05:10:56;;;;;;;19.17;14.02;;;23.80;75.70;;;;;;5090214;28;20039;-63
2021/06/18 05:13:22;;;;;;;20.15;14.05;;;23.70;75.40;;;;;;5091550;28;20376;-62
2021/06/18 05:15:48;;;;;;;22.23;13.02;;;23.80;75.10;;;;;;5091870;28;20356;-62
2021/06/18 05:18:14;;;;;;;18.67;12.20;;;23.70;74.90;;;;;;5091112;28;20038;-63
2021/06/18 05:20:41;;;;;;;22.73;13.00;;;23.70;74.80;;;;;;5091545;28;20322;-62
2021/06/18 05:23:06;;;;;;;23.23;12.85;;;23.80;74.90;;;;;;5089569;28;20073;-62
2021/06/18 05:25:32;;;;;;;19.35;12.77;;;23.80;74.80;;;;;;5088819;28;20024;-62
2021/06/18 05:27:58;;;;;;;19.02;12.60;;;23.80;75.00;;;;;;5089452;28;20475;-63
2021/06/18 05:30:23;;;;;;;14.48;9.10;;;23.70;74.70;;;;;;5089539;28;20482;-62
2021/06/18 05:32:49;;;;;;;13.65;9.38;;;23.80;74.80;;;;;;5088484;28;20063;-63
2021/06/18 05:35:16;;;;;;;12.70;8.63;;;23.80;74.60;;;;;;5090715;28;20016;-62
2021/06/18 05:37:42;;;;;;;11.93;8.23;;;23.70;74.40;;;;;;5090532;28;20760;-62
2021/06/18 05:40:08;;;;;;;13.52;9.18;;;23.70;74.40;;;;;;5090203;28;20016;-62
2021/06/18 05:42:35;;;;;;;12.98;9.63;;;23.70;74.30;;;;;;5090985;28;20032;-62
2021/06/18 05:45:02;;;;;;;13.38;8.23;;;23.80;74.40;;;;;;5091110;28;20407;-62
2021/06/18 05:47:28;;;;;;;13.57;9.38;;;23.80;74.10;;;;;;5091303;28;20020;-62
2021/06/18 05:49:54;;;;;;;13.15;10.15;;;23.70;74.10;;;;;;5089214;28;20035;-63
2021/06/18 05:52:20;;;;;;;15.27;10.98;;;23.70;74.10;;;;;;5087252;28;20487;-63
2021/06/18 05:54:45;;;;;;;13.65;9.93;;;23.70;74.00;;;;;;5090888;28;20083;-62
2021/06/18 05:57:11;;;;;;;18.23;10.98;;;23.70;74.00;;;;;;5091573;28;20078;-62
2021/06/18 05:59:37;;;;;;;17.60;11.00;;;23.70;73.60;;;;;;5091618;28;20036;-62
2021/06/18 06:02:03;;;;;;;15.63;11.93;;;23.80;73.80;;;;;;5090381;28;20546;-62
2021/06/18 06:04:28;;;;;;;17.40;11.35;;;23.70;74.10;;;;;;5091377;28;20028;-62
2021/06/18 06:06:54;;;;;;;14.23;11.13;;;23.70;74.70;;;;;;5091516;28;20036;-62
2021/06/18 06:09:20;;;;;;;17.60;10.27;;;23.70;74.60;;;;;;5091124;28;20059;-62
2021/06/18 06:11:46;;;;;;;12.50;9.75;;;23.80;74.60;;;;;;5091443;28;20040;-62
2021/06/18 06:14:16;;;;;;;14.25;10.30;;;23.70;74.60;;;;;;5088778;28;20487;-62
2021/06/18 06:16:43;;;;;;;11.63;9.55;;;23.80;74.60;;;;;;5090688;28;20020;-62
2021/06/18 06:19:09;;;;;;;11.82;9.18;;;23.80;74.80;;;;;;5088059;28;20481;-62
2021/06/18 06:21:35;;;;;;;14.10;8.40;;;23.80;74.60;;;;;;5091416;28;20084;-62
2021/06/18 06:24:00;;;;;;;9.30;7.47;;;23.80;74.80;;;;;;5089094;28;20035;-62
2021/06/18 06:26:26;;;;;;;13.05;6.93;;;23.80;74.70;;;;;;5090412;28;20024;-62
2021/06/18 06:28:52;;;;;;;11.98;6.57;;;23.80;74.80;;;;;;5091276;28;20050;-62
2021/06/18 06:31:18;;;;;;;6.47;5.20;;;23.80;74.80;;;;;;5089567;28;20105;-62
2021/06/18 06:33:44;;;;;;;8.60;5.90;;;23.90;74.90;;;;;;5090718;28;20130;-62
2021/06/18 06:36:10;;;;;;;10.35;5.63;;;23.80;74.90;;;;;;5092221;28;20115;-62
2021/06/18 06:38:36;;;;;;;12.75;5.03;;;23.90;75.10;;;;;;5095362;28;20024;-62
2021/06/18 06:41:03;;;;;;;11.02;4.88;;;23.80;74.90;;;;;;5093914;28;20032;-62
2021/06/18 06:43:29;;;;;;;10.90;4.47;;;23.90;75.20;;;;;;5082572;28;20030;-62
2021/06/18 06:45:54;;;;;;;10.88;4.35;;;23.80;75.00;;;;;;5094080;28;20048;-62
2021/06/18 06:48:20;;;;;;;8.38;4.35;;;23.80;75.10;;;;;;5094109;28;20025;-63
2021/06/18 06:50:45;;;;;;;10.93;5.15;;;23.90;75.00;;;;;;5093483;28;20024;-62
2021/06/18 06:53:11;;;;;;;9.95;4.53;;;23.90;75.20;;;;;;5092816;28;20073;-62
2021/06/18 06:55:37;;;;;;;9.80;4.63;;;23.90;75.50;;;;;;5092893;28;20024;-62
2021/06/18 06:58:06;;;;;;;10.00;4.88;;;23.90;75.40;;;;;;5071983;28;20032;-62
2021/06/18 07:00:32;;;;;;;8.52;5.70;;;23.90;75.40;;;;;;5095254;28;20106;-62
2021/06/18 07:02:58;;;;;;;7.35;4.47;;;23.90;75.60;;;;;;5094791;28;20398;-62
2021/06/18 07:05:24;;;;;;;8.20;5.07;;;23.80;75.50;;;;;;5093871;28;20103;-62
2021/06/18 07:07:49;;;;;;;8.43;5.05;;;23.80;75.40;;;;;;5092531;28;20035;-62
2021/06/18 07:10:15;;;;;;;6.20;4.78;;;23.80;75.50;;;;;;5095071;28;20066;-62
2021/06/18 07:12:41;;;;;;;10.57;5.35;;;23.80;75.80;;;;;;5080371;28;20035;-62
2021/06/18 07:15:07;;;;;;;6.55;4.88;;;23.80;76.30;;;;;;5094719;28;20439;-62
2021/06/18 07:17:33;;;;;;;5.78;4.10;;;23.80;76.70;;;;;;5091458;28;20114;-62
2021/06/18 07:20:01;;;;;;;7.22;5.15;;;23.80;76.90;;;;;;5094746;28;20106;-62
2021/06/18 07:22:29;;;;;;;7.63;4.72;;;23.80;77.20;;;;;;5093982;28;20024;-62
2021/06/18 07:24:55;;;;;;;8.93;4.40;;;23.70;77.30;;;;;;5094566;28;20016;-62
2021/06/18 07:27:23;;;;;;;8.93;5.10;;;23.80;77.40;;;;;;5080993;28;20074;-62
2021/06/18 07:29:49;;;;;;;7.35;5.60;;;23.70;77.30;;;;;;5095027;28;20040;-62
2021/06/18 07:32:15;;;;;;;7.38;5.30;;;23.70;77.50;;;;;;5090656;28;20471;-62
2021/06/18 07:34:41;;;;;;;5.55;4.30;;;23.70;77.60;;;;;;5093215;28;20119;-62
2021/06/18 07:37:07;;;;;;;8.50;5.25;;;23.70;77.80;;;;;;5093992;28;20043;-62
2021/06/18 07:39:33;;;;;;;6.72;6.03;;;23.70;77.80;;;;;;5092576;28;20028;-62
2021/06/18 07:41:59;;;;;;;6.82;5.40;;;23.70;77.90;;;;;;5093274;28;20431;-62
2021/06/18 07:44:24;;;;;;;6.97;5.30;;;23.70;78.10;;;;;;5073840;28;20538;-62
2021/06/18 07:46:50;;;;;;;9.20;5.68;;;23.80;77.90;;;;;;5092428;28;20040;-62
2021/06/18 07:49:16;;;;;;;8.18;5.93;;;23.80;77.90;;;;;;5092683;28;20028;-62
2021/06/18 07:51:42;;;;;;;9.68;5.63;;;23.90;78.00;;;;;;5090803;28;20489;-62
2021/06/18 07:54:11;;;;;;;6.97;5.13;;;23.90;78.10;;;;;;5093888;28;20063;-63
2021/06/18 07:56:42;;;;;;;7.07;5.43;;;23.90;78.10;;;;;;5092351;28;20035;-62
2021/06/18 07:59:08;;;;;;;6.88;5.30;;;24.00;78.30;;;;;;5093271;28;20039;-62
2021/06/18 08:01:33;;;;;;;7.95;5.22;;;24.00;78.30;;;;;;5091596;28;20452;-63
2021/06/18 08:03:59;;;;;;;9.52;5.55;;;24.00;78.20;;;;;;5082347;28;20039;-62
2021/06/18 08:06:24;;;;;;;8.18;5.32;;;24.10;78.10;;;;;;5094317;28;20024;-62
2021/06/18 08:08:50;;;;;;;9.30;5.72;;;24.10;77.80;;;;;;5092760;28;20032;-63
2021/06/18 08:11:16;;;;;;;7.85;5.40;;;24.10;77.40;;;;;;5093847;28;20028;-62
2021/06/18 08:13:42;;;;;;;8.18;4.97;;;24.20;77.20;;;;;;5073504;28;20039;-62
2021/06/18 08:16:08;;;;;;;10.75;5.15;;;24.20;77.20;;;;;;5092408;28;20031;-62
2021/06/18 08:18:35;;;;;;;8.27;4.82;;;24.20;77.10;;;;;;5093042;28;20467;-62
2021/06/18 08:21:02;;;;;;;8.13;4.95;;;24.20;77.00;;;;;;5092475;28;20074;-62
2021/06/18 08:23:29;;;;;;;7.93;5.65;;;24.30;77.30;;;;;;5093873;28;20028;-62
2021/06/18 08:25:55;;;;;;;8.30;5.22;;;24.20;77.60;;;;;;5091975;28;20374;-63
2021/06/18 08:28:21;;;;;;;9.68;5.47;;;24.30;77.60;;;;;;5092944;28;20039;-63
2021/06/18 08:30:46;;;;;;;8.25;5.45;;;24.30;77.80;;;;;;5093100;28;20043;-62
2021/06/18 08:33:12;;;;;;;7.55;4.32;;;24.40;77.50;;;;;;5092177;28;20036;-63
2021/06/18 08:35:39;;;;;;;7.63;3.85;;;24.40;77.40;;;;;;5092252;28;20071;-63
2021/06/18 08:38:05;;;;;;;4.57;3.38;;;24.40;77.20;;;;;;5089764;28;20061;-66
2021/06/18 08:40:33;;;;;;;5.88;3.45;;;24.40;77.10;;;;;;5091912;28;20028;-66
2021/06/18 08:43:01;;;;;;;5.38;2.92;;;24.50;77.00;;;;;;5090220;28;20028;-67
2021/06/18 08:45:26;;;;;;;4.03;2.17;;;24.50;77.00;;;;;;5090137;28;20039;-64
2021/06/18 08:47:52;;;;;;;5.03;3.38;;;24.50;77.10;;;;;;5089787;28;20054;-64
2021/06/18 08:50:23;;;;;;;11.10;3.67;;;24.50;77.00;;;;;;5091961;28;20555;-66
2021/06/18 08:52:52;;;;;;;9.63;4.05;;;24.50;77.20;;;;;;5092777;28;20039;-65
2021/06/18 08:55:20;;;;;;;4.40;3.67;;;24.50;77.20;;;;;;5092025;28;20035;-65
2021/06/18 08:57:54;;;;;;;5.22;3.33;;;24.50;77.40;;;;;;5090847;28;20073;-66
2021/06/18 09:00:22;;;;;;;9.25;2.63;;;24.50;77.40;;;;;;5091385;28;20069;-65
2021/06/18 09:02:51;;;;;;;5.43;3.30;;;24.50;77.60;;;;;;5090074;28;20035;-66
2021/06/18 09:05:17;;;;;;;4.07;2.67;;;24.50;77.30;;;;;;5090585;28;20055;-66
2021/06/18 09:08:03;;;;;;;5.13;3.17;;;24.50;77.50;;;;;;5088205;28;20531;-66
2021/06/18 09:10:41;;;;;;;5.35;3.00;;;24.50;77.60;;;;;;5089231;28;20031;-65
2021/06/18 09:13:11;;;;;;;6.72;3.05;;;24.50;77.80;;;;;;5091923;28;20398;-65
2021/06/18 09:15:40;;;;;;;2.97;2.42;;;24.50;77.80;;;;;;5090462;28;20459;-64
2021/06/18 09:18:40;;;;;;;2.97;2.63;;;24.50;78.10;;;;;;5086277;28;20032;-64
2021/06/18 09:21:13;;;;;;;5.82;4.03;;;24.50;78.30;;;;;;5092072;28;20036;-64
2021/06/18 09:23:53;;;;;;;8.13;4.63;;;24.50;78.20;;;;;;5090672;28;20479;-64
2021/06/18 09:26:48;;;;;;;9.95;4.82;;;24.50;78.40;;;;;;5089013;28;20032;-65
2021/06/18 09:29:17;;;;;;;5.75;3.88;;;24.50;78.30;;;;;;5000634;28;20497;-64
2021/06/18 09:31:59;;;;;;;10.32;5.90;;;24.60;78.70;;;;;;5091517;28;20027;-64
2021/06/18 09:34:30;;;;;;;7.90;4.90;;;24.60;78.50;;;;;;5090691;28;20048;-64
2021/06/18 09:37:24;;;;;;;8.82;4.88;;;24.70;78.30;;;;;;5092263;28;20016;-64
2021/06/18 09:40:03;;;;;;;13.82;6.57;;;24.80;78.10;;;;;;5090867;28;20028;-63
2021/06/18 09:42:30;;;;;;;9.95;5.97;;;24.70;78.20;;;;;;5091743;28;20111;-63
2021/06/18 09:45:04;;;;;;;8.00;5.13;;;24.80;78.30;;;;;;5091777;28;20056;-64
2021/06/18 09:47:30;;;;;;;8.68;6.40;;;24.80;78.00;;;;;;5090542;28;20012;-64
2021/06/18 09:49:57;;;;;;;8.68;5.85;;;24.90;77.90;;;;;;5087583;28;20093;-64
2021/06/18 09:52:25;;;;;;;14.90;6.32;;;24.90;77.60;;;;;;5089673;28;20046;-63
2021/06/18 09:54:53;;;;;;;8.70;5.60;;;25.00;77.40;;;;;;5091645;28;20051;-63
2021/06/18 09:57:21;;;;;;;7.75;4.95;;;25.00;77.40;;;;;;5086094;28;20024;-63
2021/06/18 09:59:53;;;;;;;9.00;5.82;;;25.10;77.50;;;;;;5086952;28;20485;-64
2021/06/18 10:02:21;;;;;;;8.88;4.38;;;25.20;77.30;;;;;;5091607;28;20024;-64
2021/06/18 10:04:49;;;;;;;8.00;5.78;;;25.20;76.90;;;;;;5091177;28;20493;-64
2021/06/18 10:07:15;;;;;;;11.18;5.60;;;25.30;76.80;;;;;;5090318;28;20034;-64
2021/06/18 10:09:41;;;;;;;11.45;5.35;;;25.30;76.80;;;;;;5096057;28;20042;-64
2021/06/18 10:12:08;;;;;;;6.45;3.92;;;25.40;76.80;;;;;;5094060;28;20538;-65
2021/06/18 10:14:34;;;;;;;6.90;4.40;;;25.40;76.70;;;;;;5095598;28;20036;-65
2021/06/18 10:17:00;;;;;;;8.75;4.20;;;25.40;76.70;;;;;;5094547;28;20123;-65
2021/06/18 10:19:27;;;;;;;5.63;3.50;;;25.50;76.90;;;;;;5095152;28;20050;-65
2021/06/18 10:21:55;;;;;;;5.72;3.95;;;25.50;77.00;;;;;;5095343;28;20028;-65
2021/06/18 10:24:25;;;;;;;4.75;3.35;;;25.50;76.70;;;;;;5093753;28;20441;-65
2021/06/18 10:26:52;;;;;;;5.43;3.55;;;25.60;76.90;;;;;;5095070;28;20036;-65
2021/06/18 10:29:32;;;;;;;5.88;3.75;;;25.60;76.80;;;;;;5091812;28;20037;-65
2021/06/18 10:32:18;;;;;;;4.75;3.17;;;25.60;76.90;;;;;;5095457;28;20036;-65
2021/06/18 10:34:43;;;;;;;8.05;4.15;;;25.70;77.00;;;;;;5092048;28;20034;-65
2021/06/18 10:37:20;;;;;;;8.68;3.65;;;25.70;77.20;;;;;;5094471;28;20024;-65
2021/06/18 10:39:51;;;;;;;6.50;3.38;;;25.70;77.30;;;;;;5094996;28;20036;-69
2021/06/18 10:42:17;;;;;;;7.30;3.50;;;25.80;77.40;;;;;;5086416;28;20050;-65
2021/06/18 10:44:48;;;;;;;5.43;3.35;;;25.80;77.60;;;;;;5093968;28;20082;-65
2021/06/18 10:47:44;;;;;;;5.18;3.15;;;25.90;77.80;;;;;;5095329;28;20479;-65
2021/06/18 10:50:12;;;;;;;6.95;3.55;;;25.90;77.80;;;;;;5082603;28;20425;-65
2021/06/18 10:52:39;;;;;;;6.68;3.78;;;25.90;77.70;;;;;;5074169;28;20498;-65
2021/06/18 10:55:06;;;;;;;5.20;3.63;;;25.90;77.50;;;;;;5095313;28;20391;-65
2021/06/18 10:57:32;;;;;;;7.15;3.30;;;25.90;77.40;;;;;;5093451;28;20024;-65
2021/06/18 11:00:17;;;;;;;7.22;4.18;;;26.00;77.40;;;;;;5093224;28;21394;-65
2021/06/18 11:02:44;;;;;;;5.18;3.33;;;26.10;77.30;;;;;;5092801;28;20035;-65
2021/06/18 11:05:25;;;;;;;6.15;3.00;;;26.10;77.40;;;;;;5093405;28;20520;-65
2021/06/18 11:08:21;;;;;;;6.63;3.70;;;26.20;77.60;;;;;;5094492;28;20386;-65
2021/06/18 11:10:48;;;;;;;8.23;3.80;;;26.10;77.60;;;;;;5093677;28;20063;-65
2021/06/18 11:13:17;;;;;;;4.35;3.47;;;26.10;77.70;;;;;;5094246;28;20047;-65
2021/06/18 11:15:45;;;;;;;5.57;2.72;;;26.10;77.70;;;;;;5094070;28;20051;-65
2021/06/18 11:18:31;;;;;;;7.78;4.00;;;26.10;77.70;;;;;;5092981;28;20028;-65
2021/06/18 11:20:58;;;;;;;7.57;3.80;;;26.10;77.60;;;;;;5092001;28;20047;-64
2021/06/18 11:23:32;;;;;;;5.03;3.38;;;26.10;77.70;;;;;;5093270;28;20070;-65
2021/06/18 11:26:06;;;;;;;5.28;3.00;;;26.10;77.80;;;;;;5092229;28;20047;-65
2021/06/18 11:28:35;;;;;;;4.38;3.25;;;26.10;77.80;;;;;;5093401;28;20028;-65
2021/06/18 11:31:08;;;;;;;6.28;3.75;;;26.10;77.70;;;;;;5092099;28;20810;-65
2021/06/18 11:33:46;;;;;;;9.48;4.38;;;26.10;78.30;;;;;;5093216;28;20475;-65
2021/06/18 11:36:20;;;;;;;4.47;2.65;;;26.10;77.80;;;;;;5091137;28;20020;-64
2021/06/18 11:38:58;;;;;;;4.22;2.75;;;26.10;77.90;;;;;;5090463;28;20020;-64
2021/06/18 11:41:26;;;;;;;5.75;3.63;;;26.00;77.70;;;;;;5092549;28;20069;-64
2021/06/18 11:43:57;;;;;;;9.48;3.15;;;26.00;77.50;;;;;;5091543;28;20105;-65
2021/06/18 11:46:25;;;;;;;7.22;3.13;;;25.90;77.60;;;;;;5089547;28;20103;-64
2021/06/18 11:48:52;;;;;;;7.43;3.67;;;25.90;77.60;;;;;;5072098;28;20115;-65
2021/06/18 11:51:28;;;;;;;4.70;3.08;;;25.90;77.50;;;;;;5092422;28;20491;-64
2021/06/18 11:53:55;;;;;;;10.23;5.05;;;25.90;78.00;;;;;;5089496;28;20036;-64
2021/06/18 11:56:35;;;;;;;6.90;4.45;;;25.80;77.30;;;;;;5092515;28;20028;-64
2021/06/18 11:59:11;;;;;;;5.50;3.35;;;25.80;77.60;;;;;;5091783;28;20135;-64
2021/06/18 12:01:37;;;;;;;6.22;2.35;;;25.80;77.70;;;;;;5093110;28;20028;-64
2021/06/18 12:04:03;;;;;;;6.22;3.50;;;25.80;77.90;;;;;;5091385;28;20028;-64
2021/06/18 12:06:31;;;;;;;5.28;2.45;;;25.70;77.60;;;;;;5090669;28;20485;-64
2021/06/18 12:09:18;;;;;;;5.97;2.70;;;25.70;78.10;;;;;;5091167;28;20030;-64
2021/06/18 12:12:01;;;;;;;5.60;2.70;;;25.70;77.70;;;;;;5090735;28;20028;-64
2021/06/18 12:14:37;;;;;;;7.50;3.95;;;25.70;77.80;;;;;;5073139;28;20052;-64
2021/06/18 12:17:04;;;;;;;8.32;4.82;;;25.70;77.10;;;;;;5092326;28;20028;-64
2021/06/18 12:19:44;;;;;;;6.53;3.60;;;25.70;77.10;;;;;;5091680;28;20479;-64
2021/06/18 12:22:18;;;;;;;5.18;3.00;;;25.70;77.50;;;;;;5087900;28;20024;-64
2021/06/18 12:24:46;;;;;;;3.78;2.50;;;25.70;77.60;;;;;;5092694;28;20047;-64
2021/06/18 12:27:25;;;;;;;8.23;3.88;;;25.70;77.90;;;;;;5091899;28;20230;-64
2021/06/18 12:29:55;;;;;;;6.13;3.08;;;25.70;77.80;;;;;;5091723;28;20041;-64
2021/06/18 12:32:32;;;;;;;4.45;2.83;;;25.70;77.80;;;;;;5090785;28;20035;-64
2021/06/18 12:35:01;;;;;;;8.70;3.72;;;25.70;77.60;;;;;;5084595;28;20044;-64
2021/06/18 12:37:28;;;;;;;7.10;3.03;;;25.70;77.50;;;;;;5091631;28;20471;-64
2021/06/18 12:40:01;;;;;;;11.88;4.55;;;25.70;77.60;;;;;;5086665;28;20479;-64
2021/06/18 12:42:31;;;;;;;9.80;3.17;;;25.70;77.50;;;;;;5088273;28;20540;-64
2021/06/18 12:45:17;;;;;;;6.93;2.90;;;25.80;77.80;;;;;;5088458;28;20043;-64